Portada
METAR-TAF:

METAR-TAF

Aeroports :

Bathurst, Nova Brunsvic, Canadà

latitud: 47-38N, longitud: 065-45W, altitud: 59 m

Observació

L'informe es va fer fa 1 hora i 10 minuts, a les 03:00 UTC
Vent 5 kt del Oest
Temperatura 16°C
Humitat 72%
Pressió 1009 hPa
Visibilitat: 14.5 km
Cel cobert a una alçada de 12000 ft

METAR: CZBF 060300Z AUTO 27005KT 9SM OVC120 16/11 A2979 RMK SLP089 DENSITY ALT 500FT

Hora: 01:10 (04:10 UTC)

Pronòstic

L'informe es va fer fa 8 hores i 32 minuts, a les 19:38 UTC
Pronòstic vàlid del 05 a les 20 UTC al 06 a les 03 UTC
Vent 12 kt del Sud-Oest amb ràfegues de 22 kt
Visibilitat: 10 km
Núvols disperses a una alçada de 7000 ft

TAF: CZBF 051938Z 0520/0603 23012G22KT P6SM SCT070 RMK FCST BASED ON AUTO OBS. NXT FCST WILL BE ISSUED AT 060845Z

Observacions i pronòstics meteorològics de més de 4000 aeroports (METAR i TAF).

Les estacions disponibles són els punts grocs i vermells al mapa.

Posi el ratolí al punt desitjat per veure el nom de l'estació.

Feu clic per veure les observacions i els pronòstics meteorològics.

Per canviar el mapa: feu clic els botons verds amb una creu de color negre per apropar; al botó verd amb un guió per allunyar la imatge; o en les fletxes verdes per a mapes adjacents.


METAR-TAF: